sensor_id;sensor_type;location;lat;lon;timestamp;pressure;altitude;pressure_sealevel;temperature;humidity
43824;BME280;29470;53.550;9.926;2023-02-18T00:03:24;101232.34;;;8.50;82.02
43824;BME280;29470;53.550;9.926;2023-02-18T00:08:28;101221.16;;;8.60;81.32
43824;BME280;29470;53.550;9.926;2023-02-18T00:13:31;101237.38;;;9.11;78.94
43824;BME280;29470;53.550;9.926;2023-02-18T00:18:35;101216.78;;;8.69;80.52
43824;BME280;29470;53.550;9.926;2023-02-18T00:23:38;101227.72;;;8.67;81.82
43824;BME280;29470;53.550;9.926;2023-02-18T00:28:44;101233.81;;;8.78;80.15
43824;BME280;29470;53.550;9.926;2023-02-18T00:33:50;101238.91;;;8.47;82.19
43824;BME280;29470;53.550;9.926;2023-02-18T00:38:55;101241.59;;;8.48;81.09
43824;BME280;29470;53.550;9.926;2023-02-18T00:43:59;101240.00;;;8.59;81.89
43824;BME280;29470;53.550;9.926;2023-02-18T00:49:04;101253.16;;;8.62;80.99
43824;BME280;29470;53.550;9.926;2023-02-18T00:54:08;101247.75;;;8.80;80.49
43824;BME280;29470;53.550;9.926;2023-02-18T00:59:11;101256.66;;;8.33;82.29
43824;BME280;29470;53.550;9.926;2023-02-18T01:04:15;101265.78;;;8.59;81.14
43824;BME280;29470;53.550;9.926;2023-02-18T01:09:18;101267.00;;;8.44;82.34
43824;BME280;29470;53.550;9.926;2023-02-18T01:14:21;101263.66;;;8.45;81.44
43824;BME280;29470;53.550;9.926;2023-02-18T01:19:25;101249.78;;;8.53;81.09
43824;BME280;29470;53.550;9.926;2023-02-18T01:24:28;101259.09;;;8.72;80.55
43824;BME280;29470;53.550;9.926;2023-02-18T01:29:31;101251.50;;;8.33;83.21
43824;BME280;29470;53.550;9.926;2023-02-18T01:34:36;101253.03;;;8.92;81.31
43824;BME280;29470;53.550;9.926;2023-02-18T01:39:39;101261.06;;;8.45;82.05
43824;BME280;29470;53.550;9.926;2023-02-18T01:44:42;101257.00;;;8.57;82.12
43824;BME280;29470;53.550;9.926;2023-02-18T01:49:51;101250.94;;;8.77;80.52
43824;BME280;29470;53.550;9.926;2023-02-18T01:54:55;101244.66;;;8.74;80.26
43824;BME280;29470;53.550;9.926;2023-02-18T02:00:05;101239.00;;;8.38;82.55
43824;BME280;29470;53.550;9.926;2023-02-18T02:05:18;101233.66;;;8.55;82.07
43824;BME280;29470;53.550;9.926;2023-02-18T02:10:21;101227.34;;;8.93;79.05
43824;BME280;29470;53.550;9.926;2023-02-18T02:15:31;101244.34;;;9.02;79.36
43824;BME280;29470;53.550;9.926;2023-02-18T02:20:58;101246.94;;;8.60;80.50
43824;BME280;29470;53.550;9.926;2023-02-18T02:32:00;101229.59;;;8.38;82.50
43824;BME280;29470;53.550;9.926;2023-02-18T02:37:13;101226.03;;;8.88;80.15
43824;BME280;29470;53.550;9.926;2023-02-18T02:42:25;101221.72;;;8.37;81.29
43824;BME280;29470;53.550;9.926;2023-02-18T02:47:36;101215.16;;;8.30;81.48
43824;BME280;29470;53.550;9.926;2023-02-18T02:52:48;101218.53;;;8.39;80.06
43824;BME280;29470;53.550;9.926;2023-02-18T02:57:54;101219.16;;;8.37;81.31
43824;BME280;29470;53.550;9.926;2023-02-18T03:03:16;101204.00;;;8.92;80.40
43824;BME280;29470;53.550;9.926;2023-02-18T03:08:33;101199.97;;;8.95;78.86
43824;BME280;29470;53.550;9.926;2023-02-18T03:13:52;101204.78;;;8.80;81.11
43824;BME280;29470;53.550;9.926;2023-02-18T03:19:04;101206.81;;;9.05;78.28
43824;BME280;29470;53.550;9.926;2023-02-18T03:24:14;101198.53;;;8.47;81.82
43824;BME280;29470;53.550;9.926;2023-02-18T03:29:19;101200.13;;;8.55;81.18
43824;BME280;29470;53.550;9.926;2023-02-18T03:34:25;101194.28;;;9.10;80.06
43824;BME280;29470;53.550;9.926;2023-02-18T03:39:34;101203.75;;;8.89;80.32
43824;BME280;29470;53.550;9.926;2023-02-18T03:44:37;101198.69;;;9.01;79.12
43824;BME280;29470;53.550;9.926;2023-02-18T03:49:40;101207.19;;;9.10;78.59
43824;BME280;29470;53.550;9.926;2023-02-18T03:54:45;101202.94;;;9.21;78.66
43824;BME280;29470;53.550;9.926;2023-02-18T03:59:48;101200.63;;;9.03;78.62
43824;BME280;29470;53.550;9.926;2023-02-18T04:04:51;101200.06;;;9.38;78.57
43824;BME280;29470;53.550;9.926;2023-02-18T04:09:55;101187.94;;;9.27;78.96
43824;BME280;29470;53.550;9.926;2023-02-18T04:14:58;101177.91;;;9.09;80.72
43824;BME280;29470;53.550;9.926;2023-02-18T04:20:00;101170.31;;;8.90;82.73
43824;BME280;29470;53.550;9.926;2023-02-18T04:25:07;101173.47;;;8.65;84.34
43824;BME280;29470;53.550;9.926;2023-02-18T04:30:10;101156.31;;;9.29;82.84
43824;BME280;29470;53.550;9.926;2023-02-18T04:35:14;101153.81;;;8.88;85.52
43824;BME280;29470;53.550;9.926;2023-02-18T04:40:18;101143.75;;;8.91;84.65
43824;BME280;29470;53.550;9.926;2023-02-18T04:45:21;101143.91;;;8.82;84.33
43824;BME280;29470;53.550;9.926;2023-02-18T04:50:26;101130.13;;;8.72;85.71
43824;BME280;29470;53.550;9.926;2023-02-18T04:55:30;101134.16;;;9.11;85.29
43824;BME280;29470;53.550;9.926;2023-02-18T05:00:33;101137.19;;;8.84;87.72
43824;BME280;29470;53.550;9.926;2023-02-18T05:05:35;101142.69;;;8.99;85.78
43824;BME280;29470;53.550;9.926;2023-02-18T05:10:40;101139.50;;;8.92;85.61
43824;BME280;29470;53.550;9.926;2023-02-18T05:15:42;101130.19;;;9.04;84.72
43824;BME280;29470;53.550;9.926;2023-02-18T05:20:45;101127.88;;;8.97;85.38
43824;BME280;29470;53.550;9.926;2023-02-18T05:25:49;101120.16;;;9.29;85.35
43824;BME280;29470;53.550;9.926;2023-02-18T05:30:52;101119.72;;;9.03;86.73
43824;BME280;29470;53.550;9.926;2023-02-18T05:35:55;101115.31;;;9.12;87.54
43824;BME280;29470;53.550;9.926;2023-02-18T05:40:59;101107.69;;;8.71;89.82
43824;BME280;29470;53.550;9.926;2023-02-18T05:46:02;101104.34;;;8.82;90.73
43824;BME280;29470;53.550;9.926;2023-02-18T05:51:05;101084.94;;;9.30;88.15
43824;BME280;29470;53.550;9.926;2023-02-18T05:56:10;101088.91;;;9.04;88.63
43824;BME280;29470;53.550;9.926;2023-02-18T06:01:13;101093.09;;;8.81;89.57
43824;BME280;29470;53.550;9.926;2023-02-18T06:06:15;101075.50;;;8.98;89.20
43824;BME280;29470;53.550;9.926;2023-02-18T06:11:20;101076.88;;;8.62;90.92
43824;BME280;29470;53.550;9.926;2023-02-18T06:16:22;101065.09;;;8.86;90.54
43824;BME280;29470;53.550;9.926;2023-02-18T06:21:25;101053.03;;;8.75;90.85
43824;BME280;29470;53.550;9.926;2023-02-18T06:26:30;101036.53;;;8.73;89.20
43824;BME280;29470;53.550;9.926;2023-02-18T06:31:33;101021.66;;;9.13;90.67
43824;BME280;29470;53.550;9.926;2023-02-18T06:36:36;101023.72;;;8.84;90.03
43824;BME280;29470;53.550;9.926;2023-02-18T06:41:40;101009.00;;;9.16;90.24
43824;BME280;29470;53.550;9.926;2023-02-18T06:46:43;101000.03;;;9.01;89.23
43824;BME280;29470;53.550;9.926;2023-02-18T06:51:46;100984.47;;;9.43;87.89
43824;BME280;29470;53.550;9.926;2023-02-18T06:56:50;100984.16;;;9.28;88.60
43824;BME280;29470;53.550;9.926;2023-02-18T07:01:54;100963.84;;;9.55;89.15
43824;BME280;29470;53.550;9.926;2023-02-18T07:06:57;100942.09;;;9.76;88.55
43824;BME280;29470;53.550;9.926;2023-02-18T07:12:02;100937.69;;;9.63;86.52
43824;BME280;29470;53.550;9.926;2023-02-18T07:17:05;100947.47;;;9.55;88.08
43824;BME280;29470;53.550;9.926;2023-02-18T07:22:09;100942.72;;;9.49;87.88
43824;BME280;29470;53.550;9.926;2023-02-18T07:27:14;100934.16;;;9.38;88.94
43824;BME280;29470;53.550;9.926;2023-02-18T07:32:17;100904.81;;;9.60;90.29
43824;BME280;29470;53.550;9.926;2023-02-18T07:37:20;100879.94;;;10.32;86.79
43824;BME280;29470;53.550;9.926;2023-02-18T07:42:25;100883.28;;;9.83;84.42
43824;BME280;29470;53.550;9.926;2023-02-18T07:47:28;100858.91;;;10.51;84.76
43824;BME280;29470;53.550;9.926;2023-02-18T07:52:31;100846.00;;;10.39;81.89
43824;BME280;29470;53.550;9.926;2023-02-18T07:57:36;100820.06;;;10.63;81.01
43824;BME280;29470;53.550;9.926;2023-02-18T08:02:57;100811.06;;;10.70;81.90
43824;BME280;29470;53.550;9.926;2023-02-18T08:08:00;100802.03;;;10.27;82.72
43824;BME280;29470;53.550;9.926;2023-02-18T08:13:05;100800.13;;;10.25;83.13
43824;BME280;29470;53.550;9.926;2023-02-18T08:18:14;100795.59;;;10.58;83.33
43824;BME280;29470;53.550;9.926;2023-02-18T08:23:18;100790.88;;;11.03;80.41
43824;BME280;29470;53.550;9.926;2023-02-18T08:28:23;100777.16;;;10.79;80.83
43824;BME280;29470;53.550;9.926;2023-02-18T08:33:26;100786.06;;;10.33;80.69
43824;BME280;29470;53.550;9.926;2023-02-18T08:38:29;100780.88;;;10.57;82.65
43824;BME280;29470;53.550;9.926;2023-02-18T08:43:33;100766.72;;;10.52;82.55
43824;BME280;29470;53.550;9.926;2023-02-18T08:48:37;100749.50;;;10.52;82.99
43824;BME280;29470;53.550;9.926;2023-02-18T08:53:39;100734.69;;;10.63;82.85
43824;BME280;29470;53.550;9.926;2023-02-18T08:58:44;100719.19;;;10.63;83.62
43824;BME280;29470;53.550;9.926;2023-02-18T09:03:46;100699.50;;;10.65;86.14
43824;BME280;29470;53.550;9.926;2023-02-18T09:08:49;100691.44;;;10.60;87.19
43824;BME280;29470;53.550;9.926;2023-02-18T09:13:54;100667.59;;;10.39;85.27
43824;BME280;29470;53.550;9.926;2023-02-18T09:18:56;100644.47;;;10.29;86.80
43824;BME280;29470;53.550;9.926;2023-02-18T09:23:59;100647.78;;;10.14;88.54
43824;BME280;29470;53.550;9.926;2023-02-18T09:29:03;100637.50;;;10.28;88.80
43824;BME280;29470;53.550;9.926;2023-02-18T09:34:06;100638.28;;;10.27;89.63
43824;BME280;29470;53.550;9.926;2023-02-18T09:39:09;100618.53;;;10.53;88.88
43824;BME280;29470;53.550;9.926;2023-02-18T09:44:19;100612.06;;;10.34;89.86
43824;BME280;29470;53.550;9.926;2023-02-18T09:49:26;100608.31;;;10.81;89.15
43824;BME280;29470;53.550;9.926;2023-02-18T09:54:29;100583.72;;;11.01;88.04
43824;BME280;29470;53.550;9.926;2023-02-18T09:59:33;100575.28;;;10.90;87.56
43824;BME280;29470;53.550;9.926;2023-02-18T10:04:40;100563.19;;;10.64;88.87
43824;BME280;29470;53.550;9.926;2023-02-18T10:09:46;100554.06;;;11.10;88.02
43824;BME280;29470;53.550;9.926;2023-02-18T10:14:53;100564.75;;;10.35;91.45
43824;BME280;29470;53.550;9.926;2023-02-18T10:19:57;100544.91;;;10.74;90.69
43824;BME280;29470;53.550;9.926;2023-02-18T10:25:05;100545.47;;;11.24;89.33
43824;BME280;29470;53.550;9.926;2023-02-18T10:30:21;100539.81;;;11.30;88.16
43824;BME280;29470;53.550;9.926;2023-02-18T10:35:29;100525.16;;;11.30;89.90
43824;BME280;29470;53.550;9.926;2023-02-18T10:40:43;100519.00;;;11.15;91.67
43824;BME280;29470;53.550;9.926;2023-02-18T10:45:56;100508.63;;;11.57;89.31
43824;BME280;29470;53.550;9.926;2023-02-18T10:51:07;100497.34;;;11.70;90.33
43824;BME280;29470;53.550;9.926;2023-02-18T10:56:35;100472.06;;;12.24;88.92
43824;BME280;29470;53.550;9.926;2023-02-18T11:01:40;100465.75;;;12.50;87.67
43824;BME280;29470;53.550;9.926;2023-02-18T11:06:46;100459.94;;;11.94;90.94
43824;BME280;29470;53.550;9.926;2023-02-18T11:11:50;100452.75;;;12.19;90.77
43824;BME280;29470;53.550;9.926;2023-02-18T11:17:20;100438.50;;;11.82;95.84
43824;BME280;29470;53.550;9.926;2023-02-18T11:22:27;100438.41;;;11.96;96.55
43824;BME280;29470;53.550;9.926;2023-02-18T11:27:34;100413.59;;;12.14;100.00
43824;BME280;29470;53.550;9.926;2023-02-18T11:32:42;100412.88;;;12.32;100.00
43824;BME280;29470;53.550;9.926;2023-02-18T11:37:46;100407.06;;;12.36;100.00
43824;BME280;29470;53.550;9.926;2023-02-18T11:42:49;100397.38;;;12.65;100.00
43824;BME280;29470;53.550;9.926;2023-02-18T11:47:59;100404.81;;;12.27;100.00
43824;BME280;29470;53.550;9.926;2023-02-18T11:53:25;100397.03;;;12.59;100.00
43824;BME280;29470;53.550;9.926;2023-02-18T11:58:35;100409.44;;;11.88;100.00
43824;BME280;29470;53.550;9.926;2023-02-18T12:03:43;100435.78;;;12.09;100.00
43824;BME280;29470;53.550;9.926;2023-02-18T12:08:53;100447.72;;;12.37;100.00
43824;BME280;29470;53.550;9.926;2023-02-18T12:13:58;100450.69;;;12.28;100.00
43824;BME280;29470;53.550;9.926;2023-02-18T12:19:14;100450.28;;;11.92;100.00
43824;BME280;29470;53.550;9.926;2023-02-18T12:24:24;100454.91;;;11.68;100.00
43824;BME280;29470;53.550;9.926;2023-02-18T12:29:44;100470.78;;;11.59;100.00
43824;BME280;29470;53.550;9.926;2023-02-18T12:35:03;100464.91;;;11.61;100.00
43824;BME280;29470;53.550;9.926;2023-02-18T12:40:26;100478.34;;;11.56;100.00
43824;BME280;29470;53.550;9.926;2023-02-18T12:45:47;100475.63;;;11.68;100.00
43824;BME280;29470;53.550;9.926;2023-02-18T12:51:06;100483.16;;;11.49;100.00
43824;BME280;29470;53.550;9.926;2023-02-18T12:56:26;100492.16;;;11.70;100.00
43824;BME280;29470;53.550;9.926;2023-02-18T13:01:42;100507.22;;;11.90;100.00
43824;BME280;29470;53.550;9.926;2023-02-18T13:07:04;100495.81;;;11.73;100.00
43824;BME280;29470;53.550;9.926;2023-02-18T13:12:15;100507.72;;;11.41;100.00
43824;BME280;29470;53.550;9.926;2023-02-18T13:17:20;100522.31;;;11.12;100.00
43824;BME280;29470;53.550;9.926;2023-02-18T13:22:28;100515.59;;;12.00;100.00
43824;BME280;29470;53.550;9.926;2023-02-18T13:27:35;100534.00;;;11.47;100.00
43824;BME280;29470;53.550;9.926;2023-02-18T13:32:50;100536.66;;;11.77;100.00
43824;BME280;29470;53.550;9.926;2023-02-18T13:38:08;100548.41;;;12.14;100.00
43824;BME280;29470;53.550;9.926;2023-02-18T13:43:19;100560.72;;;11.75;100.00
43824;BME280;29470;53.550;9.926;2023-02-18T13:48:26;100562.38;;;11.46;100.00
43824;BME280;29470;53.550;9.926;2023-02-18T13:53:33;100578.06;;;11.20;100.00
43824;BME280;29470;53.550;9.926;2023-02-18T13:58:43;100585.47;;;11.56;100.00
43824;BME280;29470;53.550;9.926;2023-02-18T14:04:01;100586.44;;;12.00;100.00
43824;BME280;29470;53.550;9.926;2023-02-18T14:09:34;100593.19;;;11.98;100.00
43824;BME280;29470;53.550;9.926;2023-02-18T14:14:38;100599.47;;;11.73;100.00
43824;BME280;29470;53.550;9.926;2023-02-18T14:19:41;100630.09;;;11.66;100.00
43824;BME280;29470;53.550;9.926;2023-02-18T14:24:48;100641.47;;;11.27;100.00
43824;BME280;29470;53.550;9.926;2023-02-18T14:29:51;100651.63;;;11.93;100.00
43824;BME280;29470;53.550;9.926;2023-02-18T14:35:23;100663.84;;;11.67;99.65
43824;BME280;29470;53.550;9.926;2023-02-18T14:40:57;100683.97;;;11.58;93.79
43824;BME280;29470;53.550;9.926;2023-02-18T14:46:09;100701.50;;;10.69;98.36
43824;BME280;29470;53.550;9.926;2023-02-18T14:51:19;100709.41;;;10.45;98.14
43824;BME280;29470;53.550;9.926;2023-02-18T14:56:25;100700.91;;;10.73;98.16
43824;BME280;29470;53.550;9.926;2023-02-18T15:01:30;100713.50;;;10.55;97.86
43824;BME280;29470;53.550;9.926;2023-02-18T15:06:36;100715.44;;;10.71;95.89
43824;BME280;29470;53.550;9.926;2023-02-18T15:11:44;100729.13;;;10.57;93.07
43824;BME280;29470;53.550;9.926;2023-02-18T15:16:48;100737.63;;;10.42;94.84
43824;BME280;29470;53.550;9.926;2023-02-18T15:21:53;100743.06;;;10.10;95.71
43824;BME280;29470;53.550;9.926;2023-02-18T15:27:00;100763.72;;;10.10;96.49
43824;BME280;29470;53.550;9.926;2023-02-18T15:32:14;100780.38;;;10.01;96.00
43824;BME280;29470;53.550;9.926;2023-02-18T15:37:18;100795.31;;;10.17;94.92
43824;BME280;29470;53.550;9.926;2023-02-18T15:42:26;100805.31;;;10.01;92.65
43824;BME280;29470;53.550;9.926;2023-02-18T15:47:30;100816.34;;;9.86;95.15
43824;BME280;29470;53.550;9.926;2023-02-18T15:52:37;100826.66;;;9.98;91.68
43824;BME280;29470;53.550;9.926;2023-02-18T15:57:42;100816.78;;;10.05;89.29
43824;BME280;29470;53.550;9.926;2023-02-18T16:02:53;100830.47;;;10.03;88.69
43824;BME280;29470;53.550;9.926;2023-02-18T16:07:59;100839.34;;;9.95;86.70
43824;BME280;29470;53.550;9.926;2023-02-18T16:13:04;100855.88;;;9.97;84.67
43824;BME280;29470;53.550;9.926;2023-02-18T16:18:23;100855.00;;;10.44;83.35
43824;BME280;29470;53.550;9.926;2023-02-18T16:23:34;100867.56;;;10.16;83.47
43824;BME280;29470;53.550;9.926;2023-02-18T16:28:41;100869.69;;;10.34;81.68
43824;BME280;29470;53.550;9.926;2023-02-18T16:33:44;100879.56;;;10.27;83.69
43824;BME280;29470;53.550;9.926;2023-02-18T16:38:47;100899.00;;;9.98;83.68
43824;BME280;29470;53.550;9.926;2023-02-18T16:43:51;100898.41;;;9.67;84.03
43824;BME280;29470;53.550;9.926;2023-02-18T16:48:54;100902.50;;;9.41;84.95
43824;BME280;29470;53.550;9.926;2023-02-18T16:53:57;100900.59;;;9.84;83.17
43824;BME280;29470;53.550;9.926;2023-02-18T16:59:02;100912.34;;;9.35;85.79
43824;BME280;29470;53.550;9.926;2023-02-18T17:04:05;100915.53;;;9.88;82.91
43824;BME280;29470;53.550;9.926;2023-02-18T17:09:11;100918.06;;;9.31;85.04
43824;BME280;29470;53.550;9.926;2023-02-18T17:14:20;100923.59;;;9.13;86.93
43824;BME280;29470;53.550;9.926;2023-02-18T17:19:23;100944.72;;;9.41;86.13
43824;BME280;29470;53.550;9.926;2023-02-18T17:24:26;100951.09;;;9.12;89.52
43824;BME280;29470;53.550;9.926;2023-02-18T17:29:30;100960.56;;;9.02;90.09
43824;BME280;29470;53.550;9.926;2023-02-18T17:34:33;100971.09;;;8.82;91.32
43824;BME280;29470;53.550;9.926;2023-02-18T17:39:38;100967.34;;;9.34;89.26
43824;BME280;29470;53.550;9.926;2023-02-18T17:44:42;100972.22;;;9.19;89.71
43824;BME280;29470;53.550;9.926;2023-02-18T17:49:45;100979.78;;;9.50;87.82
43824;BME280;29470;53.550;9.926;2023-02-18T17:54:48;100996.34;;;9.41;89.44
43824;BME280;29470;53.550;9.926;2023-02-18T17:59:52;100999.44;;;8.93;90.45
43824;BME280;29470;53.550;9.926;2023-02-18T18:04:58;101005.44;;;9.04;91.57
43824;BME280;29470;53.550;9.926;2023-02-18T18:10:01;101011.63;;;8.73;91.19
43824;BME280;29470;53.550;9.926;2023-02-18T18:15:22;101023.00;;;8.65;94.13
43824;BME280;29470;53.550;9.926;2023-02-18T18:20:27;101021.84;;;8.40;96.05
43824;BME280;29470;53.550;9.926;2023-02-18T18:25:33;101034.25;;;8.34;96.98
43824;BME280;29470;53.550;9.926;2023-02-18T18:30:41;101048.16;;;8.36;96.30
43824;BME280;29470;53.550;9.926;2023-02-18T18:35:46;101053.94;;;8.13;99.69
43824;BME280;29470;53.550;9.926;2023-02-18T18:40:54;101059.63;;;8.61;97.18
43824;BME280;29470;53.550;9.926;2023-02-18T18:45:58;101071.22;;;8.55;97.30
43824;BME280;29470;53.550;9.926;2023-02-18T18:51:02;101076.75;;;8.39;96.70
43824;BME280;29470;53.550;9.926;2023-02-18T18:56:05;101088.50;;;8.57;95.74
43824;BME280;29470;53.550;9.926;2023-02-18T19:01:14;101092.06;;;8.07;97.45
43824;BME280;29470;53.550;9.926;2023-02-18T19:06:18;101095.69;;;8.09;95.57
43824;BME280;29470;53.550;9.926;2023-02-18T19:11:21;101108.91;;;7.82;97.24
43824;BME280;29470;53.550;9.926;2023-02-18T19:16:30;101115.44;;;7.58;97.81
43824;BME280;29470;53.550;9.926;2023-02-18T19:21:35;101127.69;;;7.71;98.15
43824;BME280;29470;53.550;9.926;2023-02-18T19:26:38;101124.38;;;7.82;95.99
43824;BME280;29470;53.550;9.926;2023-02-18T19:31:42;101136.13;;;7.60;97.02
43824;BME280;29470;53.550;9.926;2023-02-18T19:36:45;101128.97;;;7.66;95.44
43824;BME280;29470;53.550;9.926;2023-02-18T19:41:48;101124.84;;;7.09;98.99
43824;BME280;29470;53.550;9.926;2023-02-18T19:46:54;101137.69;;;7.28;97.92
43824;BME280;29470;53.550;9.926;2023-02-18T19:52:02;101140.94;;;7.36;97.95
43824;BME280;29470;53.550;9.926;2023-02-18T19:57:08;101144.19;;;6.95;100.00
43824;BME280;29470;53.550;9.926;2023-02-18T20:02:19;101139.78;;;7.32;96.99
43824;BME280;29470;53.550;9.926;2023-02-18T20:07:22;101145.00;;;7.23;98.61
43824;BME280;29470;53.550;9.926;2023-02-18T20:12:26;101161.31;;;6.95;99.00
43824;BME280;29470;53.550;9.926;2023-02-18T20:17:33;101162.84;;;7.41;96.45
43824;BME280;29470;53.550;9.926;2023-02-18T20:22:37;101165.13;;;7.08;97.83
43824;BME280;29470;53.550;9.926;2023-02-18T20:27:46;101156.84;;;7.02;96.80
43824;BME280;29470;53.550;9.926;2023-02-18T20:33:03;101151.09;;;7.05;97.25
43824;BME280;29470;53.550;9.926;2023-02-18T20:38:07;101143.78;;;7.39;96.64
43824;BME280;29470;53.550;9.926;2023-02-18T20:43:10;101148.63;;;7.55;94.71
43824;BME280;29470;53.550;9.926;2023-02-18T20:48:15;101161.13;;;7.31;95.52
43824;BME280;29470;53.550;9.926;2023-02-18T20:53:21;101155.03;;;7.01;97.42
43824;BME280;29470;53.550;9.926;2023-02-18T20:58:31;101178.41;;;6.94;98.68
43824;BME280;29470;53.550;9.926;2023-02-18T21:03:39;101173.84;;;7.30;94.79
43824;BME280;29470;53.550;9.926;2023-02-18T21:08:48;101165.09;;;7.28;94.93
43824;BME280;29470;53.550;9.926;2023-02-18T21:13:54;101171.22;;;7.00;96.68
43824;BME280;29470;53.550;9.926;2023-02-18T21:18:59;101160.53;;;7.15;96.86
43824;BME280;29470;53.550;9.926;2023-02-18T21:24:03;101150.69;;;7.59;93.06
43824;BME280;29470;53.550;9.926;2023-02-18T21:29:07;101135.06;;;7.47;93.40
43824;BME280;29470;53.550;9.926;2023-02-18T21:34:14;101139.47;;;7.59;91.92
43824;BME280;29470;53.550;9.926;2023-02-18T21:39:19;101144.56;;;7.68;90.56
43824;BME280;29470;53.550;9.926;2023-02-18T21:44:26;101134.78;;;7.74;88.86
43824;BME280;29470;53.550;9.926;2023-02-18T21:49:48;101129.66;;;7.84;88.85
43824;BME280;29470;53.550;9.926;2023-02-18T21:54:55;101128.78;;;8.04;87.33
43824;BME280;29470;53.550;9.926;2023-02-18T22:00:06;101133.94;;;7.94;86.55
43824;BME280;29470;53.550;9.926;2023-02-18T22:05:27;101137.41;;;7.84;90.06
43824;BME280;29470;53.550;9.926;2023-02-18T22:10:33;101146.31;;;7.58;90.58
43824;BME280;29470;53.550;9.926;2023-02-18T22:15:35;101152.81;;;7.74;89.19
43824;BME280;29470;53.550;9.926;2023-02-18T22:20:43;101160.91;;;7.19;90.81
43824;BME280;29470;53.550;9.926;2023-02-18T22:25:46;101155.25;;;7.43;90.59
43824;BME280;29470;53.550;9.926;2023-02-18T22:30:49;101142.25;;;7.71;91.41
43824;BME280;29470;53.550;9.926;2023-02-18T22:35:54;101151.50;;;7.39;90.98
43824;BME280;29470;53.550;9.926;2023-02-18T22:41:02;101145.25;;;7.46;93.15
43824;BME280;29470;53.550;9.926;2023-02-18T22:46:05;101141.38;;;7.91;89.91
43824;BME280;29470;53.550;9.926;2023-02-18T22:51:12;101137.19;;;7.62;90.44
43824;BME280;29470;53.550;9.926;2023-02-18T22:56:16;101134.16;;;7.87;88.41
43824;BME280;29470;53.550;9.926;2023-02-18T23:01:20;101131.19;;;7.72;91.22
43824;BME280;29470;53.550;9.926;2023-02-18T23:06:25;101123.63;;;7.94;88.07
43824;BME280;29470;53.550;9.926;2023-02-18T23:11:28;101126.38;;;7.66;92.06
43824;BME280;29470;53.550;9.926;2023-02-18T23:16:32;101113.72;;;7.88;88.66
43824;BME280;29470;53.550;9.926;2023-02-18T23:21:57;101114.63;;;8.09;88.73
43824;BME280;29470;53.550;9.926;2023-02-18T23:27:01;101101.03;;;7.60;90.80
43824;BME280;29470;53.550;9.926;2023-02-18T23:32:04;101100.41;;;7.73;91.75
43824;BME280;29470;53.550;9.926;2023-02-18T23:37:09;101079.84;;;7.94;90.86
43824;BME280;29470;53.550;9.926;2023-02-18T23:42:12;101081.38;;;7.92;88.15
43824;BME280;29470;53.550;9.926;2023-02-18T23:47:15;101082.13;;;7.80;88.48
43824;BME280;29470;53.550;9.926;2023-02-18T23:52:19;101070.53;;;7.75;88.62
43824;BME280;29470;53.550;9.926;2023-02-18T23:57:23;101079.78;;;7.63;90.93
